sensor_id;sensor_type;location;lat;lon;timestamp;pressure;altitude;pressure_sealevel;temperature;humidity
51524;BME280;37610;51.790;21.590;2022-08-19T00:00:07;99781.48;;;21.89;66.94
51524;BME280;37610;51.790;21.590;2022-08-19T00:04:30;99779.34;;;21.84;67.10
51524;BME280;37610;51.790;21.590;2022-08-19T00:08:32;99773.80;;;21.80;67.05
51524;BME280;37610;51.790;21.590;2022-08-19T00:12:34;99780.16;;;21.76;67.08
51524;BME280;37610;51.790;21.590;2022-08-19T00:16:37;99780.71;;;21.66;67.02
51524;BME280;37610;51.790;21.590;2022-08-19T00:20:39;99776.85;;;21.63;67.39
51524;BME280;37610;51.790;21.590;2022-08-19T00:24:41;99772.54;;;21.60;67.39
51524;BME280;37610;51.790;21.590;2022-08-19T00:28:44;99774.81;;;21.58;67.61
51524;BME280;37610;51.790;21.590;2022-08-19T00:32:45;99774.88;;;21.57;67.63
51524;BME280;37610;51.790;21.590;2022-08-19T00:36:47;99769.69;;;21.52;67.62
51524;BME280;37610;51.790;21.590;2022-08-19T00:40:49;99770.20;;;21.49;67.79
51524;BME280;37610;51.790;21.590;2022-08-19T00:44:51;99773.11;;;21.49;67.86
51524;BME280;37610;51.790;21.590;2022-08-19T00:48:52;99771.91;;;21.50;67.62
51524;BME280;37610;51.790;21.590;2022-08-19T00:52:55;99777.50;;;21.50;67.84
51524;BME280;37610;51.790;21.590;2022-08-19T00:56:57;99779.44;;;21.46;67.39
51524;BME280;37610;51.790;21.590;2022-08-19T01:00:59;99777.89;;;21.37;67.48
51524;BME280;37610;51.790;21.590;2022-08-19T01:05:03;99779.21;;;21.29;67.99
51524;BME280;37610;51.790;21.590;2022-08-19T01:09:06;99780.59;;;21.27;68.16
51524;BME280;37610;51.790;21.590;2022-08-19T01:13:07;99784.19;;;21.22;68.29
51524;BME280;37610;51.790;21.590;2022-08-19T01:17:08;99778.67;;;21.20;68.37
51524;BME280;37610;51.790;21.590;2022-08-19T01:21:12;99777.77;;;21.20;68.63
51524;BME280;37610;51.790;21.590;2022-08-19T01:25:20;99777.44;;;21.22;68.64
51524;BME280;37610;51.790;21.590;2022-08-19T01:29:23;99777.30;;;21.24;68.68
51524;BME280;37610;51.790;21.590;2022-08-19T01:33:24;99780.70;;;21.26;68.64
51524;BME280;37610;51.790;21.590;2022-08-19T01:37:25;99783.91;;;21.26;68.46
51524;BME280;37610;51.790;21.590;2022-08-19T01:41:27;99786.35;;;21.26;68.50
51524;BME280;37610;51.790;21.590;2022-08-19T01:45:29;99787.36;;;21.26;68.53
51524;BME280;37610;51.790;21.590;2022-08-19T01:49:31;99786.48;;;21.25;68.51
51524;BME280;37610;51.790;21.590;2022-08-19T01:53:32;99783.09;;;21.25;68.58
51524;BME280;37610;51.790;21.590;2022-08-19T01:57:34;99779.06;;;21.24;68.32
51524;BME280;37610;51.790;21.590;2022-08-19T02:01:36;99781.37;;;21.24;68.50
51524;BME280;37610;51.790;21.590;2022-08-19T02:05:37;99788.88;;;21.21;68.50
51524;BME280;37610;51.790;21.590;2022-08-19T02:09:39;99781.71;;;21.17;68.41
51524;BME280;37610;51.790;21.590;2022-08-19T02:13:40;99776.67;;;21.13;68.59
51524;BME280;37610;51.790;21.590;2022-08-19T02:17:42;99771.79;;;21.13;68.67
51524;BME280;37610;51.790;21.590;2022-08-19T02:21:43;99768.40;;;21.13;68.77
51524;BME280;37610;51.790;21.590;2022-08-19T02:25:46;99761.20;;;21.13;68.67
51524;BME280;37610;51.790;21.590;2022-08-19T02:29:48;99758.73;;;21.13;68.83
51524;BME280;37610;51.790;21.590;2022-08-19T02:33:50;99757.34;;;21.13;68.82
51524;BME280;37610;51.790;21.590;2022-08-19T02:37:53;99752.32;;;21.12;68.82
51524;BME280;37610;51.790;21.590;2022-08-19T02:42:13;99755.02;;;21.10;68.82
51524;BME280;37610;51.790;21.590;2022-08-19T02:46:19;99753.55;;;21.10;69.04
51524;BME280;37610;51.790;21.590;2022-08-19T02:50:22;99755.59;;;21.09;68.96
51524;BME280;37610;51.790;21.590;2022-08-19T02:54:23;99762.90;;;21.10;68.92
51524;BME280;37610;51.790;21.590;2022-08-19T02:58:25;99769.56;;;21.07;69.11
51524;BME280;37610;51.790;21.590;2022-08-19T03:02:27;99764.90;;;21.07;69.04
51524;BME280;37610;51.790;21.590;2022-08-19T03:06:29;99765.23;;;21.06;69.02
51524;BME280;37610;51.790;21.590;2022-08-19T03:10:32;99764.14;;;21.03;69.09
51524;BME280;37610;51.790;21.590;2022-08-19T03:14:34;99764.60;;;21.01;69.15
51524;BME280;37610;51.790;21.590;2022-08-19T03:18:35;99766.40;;;20.98;69.17
51524;BME280;37610;51.790;21.590;2022-08-19T03:22:37;99762.39;;;20.96;69.24
51524;BME280;37610;51.790;21.590;2022-08-19T03:26:39;99759.63;;;20.95;69.24
51524;BME280;37610;51.790;21.590;2022-08-19T03:30:41;99760.75;;;20.95;69.27
51524;BME280;37610;51.790;21.590;2022-08-19T03:34:45;99758.77;;;20.95;69.39
51524;BME280;37610;51.790;21.590;2022-08-19T03:38:47;99771.53;;;20.95;69.39
51524;BME280;37610;51.790;21.590;2022-08-19T03:42:49;99769.95;;;20.96;69.35
51524;BME280;37610;51.790;21.590;2022-08-19T03:46:52;99766.99;;;20.96;69.55
51524;BME280;37610;51.790;21.590;2022-08-19T03:50:55;99766.25;;;20.96;69.36
51524;BME280;37610;51.790;21.590;2022-08-19T03:54:56;99768.06;;;20.99;69.40
51524;BME280;37610;51.790;21.590;2022-08-19T03:58:57;99770.23;;;21.01;69.44
51524;BME280;37610;51.790;21.590;2022-08-19T04:03:00;99772.98;;;21.03;69.33
51524;BME280;37610;51.790;21.590;2022-08-19T04:07:01;99775.53;;;21.06;69.49
51524;BME280;37610;51.790;21.590;2022-08-19T04:11:06;99771.83;;;21.09;69.37
51524;BME280;37610;51.790;21.590;2022-08-19T04:15:07;99772.88;;;21.12;69.33
51524;BME280;37610;51.790;21.590;2022-08-19T04:19:09;99773.48;;;21.15;69.43
51524;BME280;37610;51.790;21.590;2022-08-19T04:23:11;99767.72;;;21.20;69.46
51524;BME280;37610;51.790;21.590;2022-08-19T04:27:13;99769.55;;;21.25;69.49
51524;BME280;37610;51.790;21.590;2022-08-19T04:31:16;99769.65;;;21.30;69.50
51524;BME280;37610;51.790;21.590;2022-08-19T04:35:17;99766.33;;;21.37;69.37
51524;BME280;37610;51.790;21.590;2022-08-19T04:39:21;99766.56;;;21.44;69.53
51524;BME280;37610;51.790;21.590;2022-08-19T04:43:22;99771.17;;;21.53;69.37
51524;BME280;37610;51.790;21.590;2022-08-19T04:47:24;99770.36;;;21.62;69.35
51524;BME280;37610;51.790;21.590;2022-08-19T04:51:25;99766.91;;;21.73;69.45
51524;BME280;37610;51.790;21.590;2022-08-19T04:55:26;99767.27;;;21.87;69.39
51524;BME280;37610;51.790;21.590;2022-08-19T04:59:28;99769.23;;;22.04;69.32
51524;BME280;37610;51.790;21.590;2022-08-19T05:03:30;99774.39;;;22.21;69.47
51524;BME280;37610;51.790;21.590;2022-08-19T05:07:34;99779.64;;;22.39;69.25
51524;BME280;37610;51.790;21.590;2022-08-19T05:11:36;99787.19;;;22.58;69.29
51524;BME280;37610;51.790;21.590;2022-08-19T05:15:41;99788.42;;;22.77;69.22
51524;BME280;37610;51.790;21.590;2022-08-19T05:19:43;99786.46;;;22.95;69.01
51524;BME280;37610;51.790;21.590;2022-08-19T05:24:04;99782.02;;;23.11;68.56
51524;BME280;37610;51.790;21.590;2022-08-19T05:28:10;99787.25;;;23.24;68.61
51524;BME280;37610;51.790;21.590;2022-08-19T05:32:11;99783.91;;;23.35;68.59
51524;BME280;37610;51.790;21.590;2022-08-19T05:36:15;99779.63;;;23.45;68.45
51524;BME280;37610;51.790;21.590;2022-08-19T05:40:16;99780.08;;;23.54;68.41
51524;BME280;37610;51.790;21.590;2022-08-19T05:44:18;99789.02;;;23.67;68.29
51524;BME280;37610;51.790;21.590;2022-08-19T05:48:21;99801.25;;;23.79;68.02
51524;BME280;37610;51.790;21.590;2022-08-19T05:52:22;99812.60;;;23.96;67.75
51524;BME280;37610;51.790;21.590;2022-08-19T05:56:24;99810.45;;;24.12;67.52
51524;BME280;37610;51.790;21.590;2022-08-19T06:00:26;99810.09;;;24.28;66.93
51524;BME280;37610;51.790;21.590;2022-08-19T06:04:27;99799.59;;;24.39;66.66
51524;BME280;37610;51.790;21.590;2022-08-19T06:08:29;99795.13;;;24.50;66.30
51524;BME280;37610;51.790;21.590;2022-08-19T06:12:31;99788.36;;;24.61;66.20
51524;BME280;37610;51.790;21.590;2022-08-19T06:16:36;99787.75;;;24.74;66.36
51524;BME280;37610;51.790;21.590;2022-08-19T06:20:40;99780.55;;;24.90;66.15
51524;BME280;37610;51.790;21.590;2022-08-19T06:24:41;99779.87;;;24.99;65.45
51524;BME280;37610;51.790;21.590;2022-08-19T06:28:43;99784.42;;;25.03;65.31
51524;BME280;37610;51.790;21.590;2022-08-19T06:32:47;99791.25;;;25.06;65.25
51524;BME280;37610;51.790;21.590;2022-08-19T06:36:49;99794.45;;;25.11;65.01
51524;BME280;37610;51.790;21.590;2022-08-19T06:40:59;99793.92;;;25.20;64.88
51524;BME280;37610;51.790;21.590;2022-08-19T06:45:00;99792.31;;;25.33;64.67
51524;BME280;37610;51.790;21.590;2022-08-19T06:49:04;99796.47;;;25.44;64.54
51524;BME280;37610;51.790;21.590;2022-08-19T06:53:06;99798.53;;;25.55;64.06
51524;BME280;37610;51.790;21.590;2022-08-19T06:57:07;99800.08;;;25.61;63.88
51524;BME280;37610;51.790;21.590;2022-08-19T07:01:10;99798.67;;;25.69;63.99
51524;BME280;37610;51.790;21.590;2022-08-19T07:05:11;99799.36;;;25.77;63.64
51524;BME280;37610;51.790;21.590;2022-08-19T07:09:14;99799.11;;;25.85;63.55
51524;BME280;37610;51.790;21.590;2022-08-19T07:13:16;99800.54;;;25.91;63.53
51524;BME280;37610;51.790;21.590;2022-08-19T07:17:17;99801.58;;;25.99;62.96
51524;BME280;37610;51.790;21.590;2022-08-19T07:21:20;99799.71;;;26.04;62.64
51524;BME280;37610;51.790;21.590;2022-08-19T07:25:22;99805.29;;;26.11;62.62
51524;BME280;37610;51.790;21.590;2022-08-19T07:29:23;99809.13;;;26.18;62.68
51524;BME280;37610;51.790;21.590;2022-08-19T07:33:25;99815.67;;;26.29;62.18
51524;BME280;37610;51.790;21.590;2022-08-19T07:37:27;99817.95;;;26.37;61.93
51524;BME280;37610;51.790;21.590;2022-08-19T07:41:29;99814.31;;;26.47;61.44
51524;BME280;37610;51.790;21.590;2022-08-19T07:45:32;99817.55;;;26.57;61.29
51524;BME280;37610;51.790;21.590;2022-08-19T07:49:33;99825.79;;;26.65;60.79
51524;BME280;37610;51.790;21.590;2022-08-19T07:53:36;99827.52;;;26.73;60.40
51524;BME280;37610;51.790;21.590;2022-08-19T07:57:37;99824.98;;;26.80;60.25
51524;BME280;37610;51.790;21.590;2022-08-19T08:01:39;99823.20;;;26.91;60.55
51524;BME280;37610;51.790;21.590;2022-08-19T08:05:41;99822.13;;;27.05;60.44
51524;BME280;37610;51.790;21.590;2022-08-19T08:10:03;99818.84;;;27.21;59.56
51524;BME280;37610;51.790;21.590;2022-08-19T08:14:05;99814.20;;;27.33;59.12
51524;BME280;37610;51.790;21.590;2022-08-19T08:18:07;99809.45;;;27.45;58.94
51524;BME280;37610;51.790;21.590;2022-08-19T08:22:09;99812.39;;;27.57;58.87
51524;BME280;37610;51.790;21.590;2022-08-19T08:26:31;99812.15;;;27.67;58.17
51524;BME280;37610;51.790;21.590;2022-08-19T08:30:32;99809.25;;;27.72;57.40
51524;BME280;37610;51.790;21.590;2022-08-19T08:34:35;99801.98;;;27.76;57.07
51524;BME280;37610;51.790;21.590;2022-08-19T08:38:38;99803.52;;;27.80;56.96
51524;BME280;37610;51.790;21.590;2022-08-19T08:42:40;99810.38;;;27.85;56.74
51524;BME280;37610;51.790;21.590;2022-08-19T08:46:55;99806.83;;;27.89;56.72
51524;BME280;37610;51.790;21.590;2022-08-19T08:50:59;99807.20;;;27.95;56.95
51524;BME280;37610;51.790;21.590;2022-08-19T08:55:12;99809.89;;;28.01;55.86
51524;BME280;37610;51.790;21.590;2022-08-19T08:59:26;99809.58;;;28.05;55.51
51524;BME280;37610;51.790;21.590;2022-08-19T09:03:29;99811.96;;;28.08;55.36
51524;BME280;37610;51.790;21.590;2022-08-19T09:11:50;99810.68;;;28.20;55.81
51524;BME280;37610;51.790;21.590;2022-08-19T09:15:57;99817.03;;;28.28;55.58
51524;BME280;37610;51.790;21.590;2022-08-19T09:20:04;99813.60;;;28.34;55.07
51524;BME280;37610;51.790;21.590;2022-08-19T09:24:11;99810.77;;;28.42;55.14
51524;BME280;37610;51.790;21.590;2022-08-19T09:28:12;99801.93;;;28.51;54.52
51524;BME280;37610;51.790;21.590;2022-08-19T09:32:14;99808.45;;;28.57;54.19
51524;BME280;37610;51.790;21.590;2022-08-19T09:36:16;99813.01;;;28.65;53.85
51524;BME280;37610;51.790;21.590;2022-08-19T09:40:18;99820.42;;;28.75;53.51
51524;BME280;37610;51.790;21.590;2022-08-19T09:44:19;99827.17;;;28.84;53.35
51524;BME280;37610;51.790;21.590;2022-08-19T09:48:21;99833.88;;;28.92;51.62
51524;BME280;37610;51.790;21.590;2022-08-19T09:52:22;99838.71;;;29.00;52.37
51524;BME280;37610;51.790;21.590;2022-08-19T09:56:24;99844.09;;;29.07;52.01
51524;BME280;37610;51.790;21.590;2022-08-19T10:00:25;99836.65;;;29.15;52.20
51524;BME280;37610;51.790;21.590;2022-08-19T10:04:27;99826.81;;;29.27;52.12
51524;BME280;37610;51.790;21.590;2022-08-19T10:08:49;99826.46;;;29.40;51.96
51524;BME280;37610;51.790;21.590;2022-08-19T10:12:50;99831.77;;;29.54;51.60
51524;BME280;37610;51.790;21.590;2022-08-19T10:16:52;99822.13;;;29.61;50.75
51524;BME280;37610;51.790;21.590;2022-08-19T10:21:01;99819.25;;;29.65;50.34
51524;BME280;37610;51.790;21.590;2022-08-19T10:25:04;99819.09;;;29.78;50.64
51524;BME280;37610;51.790;21.590;2022-08-19T10:29:05;99810.54;;;29.88;50.32
51524;BME280;37610;51.790;21.590;2022-08-19T10:33:07;99805.30;;;29.98;50.09
51524;BME280;37610;51.790;21.590;2022-08-19T10:37:08;99801.29;;;30.07;49.22
51524;BME280;37610;51.790;21.590;2022-08-19T10:45:11;99800.23;;;30.17;48.17
51524;BME280;37610;51.790;21.590;2022-08-19T10:49:13;99797.98;;;30.22;47.35
51524;BME280;37610;51.790;21.590;2022-08-19T10:53:14;99799.67;;;30.27;46.26
51524;BME280;37610;51.790;21.590;2022-08-19T10:57:16;99802.12;;;30.31;46.20
51524;BME280;37610;51.790;21.590;2022-08-19T11:01:17;99791.41;;;30.33;46.09
51524;BME280;37610;51.790;21.590;2022-08-19T11:05:18;99794.98;;;30.37;45.91
51524;BME280;37610;51.790;21.590;2022-08-19T11:09:21;99794.83;;;30.46;45.90
51524;BME280;37610;51.790;21.590;2022-08-19T11:13:25;99789.35;;;30.56;45.51
51524;BME280;37610;51.790;21.590;2022-08-19T11:17:26;99788.74;;;30.66;45.60
51524;BME280;37610;51.790;21.590;2022-08-19T11:21:29;99791.04;;;30.73;44.77
51524;BME280;37610;51.790;21.590;2022-08-19T11:25:32;99786.25;;;30.77;45.15
51524;BME280;37610;51.790;21.590;2022-08-19T11:29:37;99784.16;;;30.84;44.64
51524;BME280;37610;51.790;21.590;2022-08-19T11:33:39;99785.17;;;30.87;44.64
51524;BME280;37610;51.790;21.590;2022-08-19T11:37:40;99778.04;;;30.95;45.16
51524;BME280;37610;51.790;21.590;2022-08-19T11:41:42;99776.10;;;31.04;44.93
51524;BME280;37610;51.790;21.590;2022-08-19T11:45:43;99768.91;;;31.13;44.49
51524;BME280;37610;51.790;21.590;2022-08-19T11:49:45;99774.91;;;31.22;43.34
51524;BME280;37610;51.790;21.590;2022-08-19T11:53:46;99772.72;;;31.29;42.66
51524;BME280;37610;51.790;21.590;2022-08-19T11:57:48;99769.67;;;31.36;42.12
51524;BME280;37610;51.790;21.590;2022-08-19T12:01:49;99762.16;;;31.42;42.51
51524;BME280;37610;51.790;21.590;2022-08-19T12:05:51;99755.48;;;31.53;42.63
51524;BME280;37610;51.790;21.590;2022-08-19T12:09:52;99748.61;;;31.70;42.74
51524;BME280;37610;51.790;21.590;2022-08-19T12:13:53;99744.36;;;31.87;41.50
51524;BME280;37610;51.790;21.590;2022-08-19T12:17:56;99740.55;;;31.96;40.92
51524;BME280;37610;51.790;21.590;2022-08-19T12:21:58;99743.45;;;32.07;41.28
51524;BME280;37610;51.790;21.590;2022-08-19T12:26:01;99737.77;;;32.20;41.16
51524;BME280;37610;51.790;21.590;2022-08-19T12:30:06;99735.27;;;32.33;40.43
51524;BME280;37610;51.790;21.590;2022-08-19T12:34:08;99733.07;;;32.45;40.53
51524;BME280;37610;51.790;21.590;2022-08-19T12:38:10;99728.64;;;32.51;39.38
51524;BME280;37610;51.790;21.590;2022-08-19T12:42:12;99718.96;;;32.59;39.37
51524;BME280;37610;51.790;21.590;2022-08-19T12:46:14;99722.73;;;32.69;39.45
51524;BME280;37610;51.790;21.590;2022-08-19T12:50:15;99725.55;;;32.79;39.09
51524;BME280;37610;51.790;21.590;2022-08-19T12:54:16;99721.38;;;32.88;39.36
51524;BME280;37610;51.790;21.590;2022-08-19T12:58:18;99714.58;;;32.93;38.69
51524;BME280;37610;51.790;21.590;2022-08-19T13:02:20;99712.05;;;32.96;38.03
51524;BME280;37610;51.790;21.590;2022-08-19T13:06:22;99712.42;;;33.10;38.31
51524;BME280;37610;51.790;21.590;2022-08-19T13:10:26;99712.16;;;33.23;37.00
51524;BME280;37610;51.790;21.590;2022-08-19T13:14:29;99709.23;;;33.32;36.91
51524;BME280;37610;51.790;21.590;2022-08-19T13:18:31;99701.10;;;33.44;37.10
51524;BME280;37610;51.790;21.590;2022-08-19T13:22:33;99699.53;;;33.55;36.87
51524;BME280;37610;51.790;21.590;2022-08-19T13:26:37;99701.20;;;33.68;36.27
51524;BME280;37610;51.790;21.590;2022-08-19T13:30:38;99697.48;;;33.85;36.63
51524;BME280;37610;51.790;21.590;2022-08-19T13:34:58;99696.01;;;34.08;36.19
51524;BME280;37610;51.790;21.590;2022-08-19T13:38:59;99694.36;;;34.21;35.29
51524;BME280;37610;51.790;21.590;2022-08-19T13:43:00;99687.90;;;34.33;36.13
51524;BME280;37610;51.790;21.590;2022-08-19T13:47:03;99685.09;;;34.43;35.24
51524;BME280;37610;51.790;21.590;2022-08-19T13:51:08;99686.86;;;34.40;34.62
51524;BME280;37610;51.790;21.590;2022-08-19T13:55:13;99691.73;;;34.50;34.34
51524;BME280;37610;51.790;21.590;2022-08-19T13:59:15;99697.90;;;34.50;34.29
51524;BME280;37610;51.790;21.590;2022-08-19T14:03:16;99690.44;;;34.62;34.04
51524;BME280;37610;51.790;21.590;2022-08-19T14:07:17;99688.38;;;34.78;33.92
51524;BME280;37610;51.790;21.590;2022-08-19T14:11:19;99685.52;;;34.97;33.82
51524;BME280;37610;51.790;21.590;2022-08-19T14:15:20;99680.14;;;35.12;33.98
51524;BME280;37610;51.790;21.590;2022-08-19T14:19:22;99684.52;;;35.24;33.52
51524;BME280;37610;51.790;21.590;2022-08-19T14:23:23;99684.77;;;35.38;33.49
51524;BME280;37610;51.790;21.590;2022-08-19T14:27:24;99688.90;;;35.54;33.41
51524;BME280;37610;51.790;21.590;2022-08-19T14:31:26;99697.90;;;35.82;33.62
51524;BME280;37610;51.790;21.590;2022-08-19T14:35:28;99707.77;;;36.07;32.86
51524;BME280;37610;51.790;21.590;2022-08-19T14:39:30;99704.73;;;36.11;32.84
51524;BME280;37610;51.790;21.590;2022-08-19T14:43:31;99700.90;;;36.13;32.10
51524;BME280;37610;51.790;21.590;2022-08-19T14:47:32;99701.05;;;36.09;32.78
51524;BME280;37610;51.790;21.590;2022-08-19T14:51:34;99702.52;;;36.07;32.48
51524;BME280;37610;51.790;21.590;2022-08-19T14:55:35;99704.40;;;36.06;32.51
51524;BME280;37610;51.790;21.590;2022-08-19T14:59:36;99710.48;;;36.13;32.48
51524;BME280;37610;51.790;21.590;2022-08-19T15:03:39;99714.64;;;36.13;32.38
51524;BME280;37610;51.790;21.590;2022-08-19T15:07:43;99717.32;;;36.17;32.56
51524;BME280;37610;51.790;21.590;2022-08-19T15:11:45;99715.76;;;36.25;32.65
51524;BME280;37610;51.790;21.590;2022-08-19T15:15:47;99717.96;;;36.27;32.75
51524;BME280;37610;51.790;21.590;2022-08-19T15:19:48;99722.73;;;36.19;32.64
51524;BME280;37610;51.790;21.590;2022-08-19T15:23:50;99721.23;;;36.14;32.44
51524;BME280;37610;51.790;21.590;2022-08-19T15:27:52;99714.92;;;36.06;32.59
51524;BME280;37610;51.790;21.590;2022-08-19T15:31:53;99709.33;;;36.00;32.90
51524;BME280;37610;51.790;21.590;2022-08-19T15:35:58;99709.31;;;35.97;32.55
51524;BME280;37610;51.790;21.590;2022-08-19T15:40:00;99705.39;;;35.95;32.91
51524;BME280;37610;51.790;21.590;2022-08-19T15:44:02;99703.35;;;35.99;32.70
51524;BME280;37610;51.790;21.590;2022-08-19T15:48:04;99700.83;;;35.98;32.50
51524;BME280;37610;51.790;21.590;2022-08-19T15:52:06;99693.63;;;36.02;32.59
51524;BME280;37610;51.790;21.590;2022-08-19T15:56:08;99690.17;;;35.75;32.68
51524;BME280;37610;51.790;21.590;2022-08-19T16:00:09;99689.61;;;35.54;32.91
51524;BME280;37610;51.790;21.590;2022-08-19T16:04:37;99693.90;;;35.20;32.89
51524;BME280;37610;51.790;21.590;2022-08-19T16:08:58;99702.47;;;34.88;33.48
51524;BME280;37610;51.790;21.590;2022-08-19T16:13:02;99703.92;;;34.73;33.71
51524;BME280;37610;51.790;21.590;2022-08-19T16:17:05;99700.75;;;34.60;33.64
51524;BME280;37610;51.790;21.590;2022-08-19T16:21:08;99697.89;;;34.47;34.12
51524;BME280;37610;51.790;21.590;2022-08-19T16:25:09;99688.64;;;34.36;34.00
51524;BME280;37610;51.790;21.590;2022-08-19T16:29:11;99687.66;;;34.09;34.23
51524;BME280;37610;51.790;21.590;2022-08-19T16:33:13;99692.19;;;33.74;34.51
51524;BME280;37610;51.790;21.590;2022-08-19T16:37:15;99687.46;;;33.40;35.04
51524;BME280;37610;51.790;21.590;2022-08-19T16:41:17;99684.17;;;33.23;35.32
51524;BME280;37610;51.790;21.590;2022-08-19T16:45:18;99681.85;;;32.88;35.65
51524;BME280;37610;51.790;21.590;2022-08-19T16:49:22;99683.02;;;32.59;35.96
51524;BME280;37610;51.790;21.590;2022-08-19T16:53:26;99679.52;;;32.37;36.52
51524;BME280;37610;51.790;21.590;2022-08-19T16:57:28;99686.83;;;32.22;36.77
51524;BME280;37610;51.790;21.590;2022-08-19T17:01:32;99689.67;;;31.91;37.07
51524;BME280;37610;51.790;21.590;2022-08-19T17:05:34;99688.03;;;31.56;37.28
51524;BME280;37610;51.790;21.590;2022-08-19T17:09:35;99684.83;;;31.20;37.80
51524;BME280;37610;51.790;21.590;2022-08-19T17:13:37;99691.73;;;30.89;38.31
51524;BME280;37610;51.790;21.590;2022-08-19T17:17:38;99683.50;;;30.57;38.57
51524;BME280;37610;51.790;21.590;2022-08-19T17:21:40;99671.90;;;30.30;39.36
51524;BME280;37610;51.790;21.590;2022-08-19T17:25:41;99672.10;;;30.00;39.59
51524;BME280;37610;51.790;21.590;2022-08-19T17:29:43;99684.31;;;29.72;40.23
51524;BME280;37610;51.790;21.590;2022-08-19T17:33:44;99686.20;;;29.48;40.70
51524;BME280;37610;51.790;21.590;2022-08-19T17:37:46;99684.93;;;29.20;40.95
51524;BME280;37610;51.790;21.590;2022-08-19T17:41:48;99691.91;;;28.94;41.24
51524;BME280;37610;51.790;21.590;2022-08-19T17:45:50;99698.88;;;28.76;41.65
51524;BME280;37610;51.790;21.590;2022-08-19T17:49:51;99702.61;;;28.54;41.87
51524;BME280;37610;51.790;21.590;2022-08-19T17:53:53;99705.30;;;28.30;42.28
51524;BME280;37610;51.790;21.590;2022-08-19T17:57:54;99709.92;;;28.16;42.55
51524;BME280;37610;51.790;21.590;2022-08-19T18:01:56;99716.42;;;28.03;42.93
51524;BME280;37610;51.790;21.590;2022-08-19T18:05:57;99714.73;;;27.88;43.17
51524;BME280;37610;51.790;21.590;2022-08-19T18:09:58;99717.77;;;27.73;43.28
51524;BME280;37610;51.790;21.590;2022-08-19T18:14:00;99728.70;;;27.60;43.58
51524;BME280;37610;51.790;21.590;2022-08-19T18:18:01;99736.09;;;27.52;44.17
51524;BME280;37610;51.790;21.590;2022-08-19T18:22:03;99741.91;;;27.44;44.40
51524;BME280;37610;51.790;21.590;2022-08-19T18:26:04;99754.91;;;27.34;44.45
51524;BME280;37610;51.790;21.590;2022-08-19T18:30:06;99752.55;;;27.25;44.71
51524;BME280;37610;51.790;21.590;2022-08-19T18:34:08;99750.58;;;27.12;44.98
51524;BME280;37610;51.790;21.590;2022-08-19T18:38:10;99750.67;;;27.05;45.12
51524;BME280;37610;51.790;21.590;2022-08-19T18:42:31;99746.12;;;26.98;45.29
51524;BME280;37610;51.790;21.590;2022-08-19T18:46:51;99748.23;;;26.88;45.44
51524;BME280;37610;51.790;21.590;2022-08-19T18:51:11;99754.47;;;26.80;45.66
51524;BME280;37610;51.790;21.590;2022-08-19T18:55:14;99756.11;;;26.73;45.72
51524;BME280;37610;51.790;21.590;2022-08-19T18:59:18;99752.88;;;26.68;45.97
51524;BME280;37610;51.790;21.590;2022-08-19T19:03:21;99745.15;;;26.62;46.08
51524;BME280;37610;51.790;21.590;2022-08-19T19:07:24;99742.12;;;26.56;46.26
51524;BME280;37610;51.790;21.590;2022-08-19T19:11:28;99741.03;;;26.48;46.59
51524;BME280;37610;51.790;21.590;2022-08-19T19:15:30;99734.29;;;26.40;46.61
51524;BME280;37610;51.790;21.590;2022-08-19T19:19:33;99732.48;;;26.30;46.93
51524;BME280;37610;51.790;21.590;2022-08-19T19:23:35;99730.46;;;26.19;47.00
51524;BME280;37610;51.790;21.590;2022-08-19T19:27:40;99725.64;;;26.09;47.13
51524;BME280;37610;51.790;21.590;2022-08-19T19:31:42;99722.58;;;25.99;47.19
51524;BME280;37610;51.790;21.590;2022-08-19T19:35:44;99723.37;;;25.89;47.29
51524;BME280;37610;51.790;21.590;2022-08-19T19:39:46;99714.17;;;25.82;47.74
51524;BME280;37610;51.790;21.590;2022-08-19T19:43:52;99711.70;;;25.73;47.65
51524;BME280;37610;51.790;21.590;2022-08-19T19:47:53;99717.61;;;25.64;47.90
51524;BME280;37610;51.790;21.590;2022-08-19T19:51:55;99730.27;;;25.59;48.10
51524;BME280;37610;51.790;21.590;2022-08-19T19:55:56;99740.06;;;25.51;48.19
51524;BME280;37610;51.790;21.590;2022-08-19T19:59:58;99750.02;;;25.45;48.36
51524;BME280;37610;51.790;21.590;2022-08-19T20:04:00;99748.89;;;25.39;48.63
51524;BME280;37610;51.790;21.590;2022-08-19T20:08:01;99749.99;;;25.33;48.58
51524;BME280;37610;51.790;21.590;2022-08-19T20:12:21;99749.73;;;25.29;48.71
51524;BME280;37610;51.790;21.590;2022-08-19T20:16:23;99749.63;;;25.25;49.08
51524;BME280;37610;51.790;21.590;2022-08-19T20:20:29;99759.29;;;25.25;49.40
51524;BME280;37610;51.790;21.590;2022-08-19T20:24:32;99769.27;;;25.24;49.35
51524;BME280;37610;51.790;21.590;2022-08-19T20:28:35;99769.55;;;25.22;49.47
51524;BME280;37610;51.790;21.590;2022-08-19T20:32:36;99769.86;;;25.19;49.75
51524;BME280;37610;51.790;21.590;2022-08-19T20:36:38;99775.81;;;25.13;49.66
51524;BME280;37610;51.790;21.590;2022-08-19T20:40:39;99775.27;;;25.09;50.17
51524;BME280;37610;51.790;21.590;2022-08-19T20:44:41;99773.38;;;25.07;50.10
51524;BME280;37610;51.790;21.590;2022-08-19T20:48:42;99773.11;;;25.05;50.33
51524;BME280;37610;51.790;21.590;2022-08-19T20:52:44;99774.19;;;25.03;50.16
51524;BME280;37610;51.790;21.590;2022-08-19T20:56:46;99776.49;;;25.00;50.50
51524;BME280;37610;51.790;21.590;2022-08-19T21:00:48;99779.18;;;24.97;50.55
51524;BME280;37610;51.790;21.590;2022-08-19T21:04:49;99782.14;;;24.94;50.71
51524;BME280;37610;51.790;21.590;2022-08-19T21:08:50;99781.39;;;24.91;50.94
51524;BME280;37610;51.790;21.590;2022-08-19T21:12:54;99779.38;;;24.87;51.09
51524;BME280;37610;51.790;21.590;2022-08-19T21:16:55;99788.13;;;24.85;51.36